createdAt,value
2023-01-22T00:02:22.582Z,101383.41
2023-01-22T00:07:38.850Z,101375.13
2023-01-22T00:10:07.023Z,101373.47
2023-01-22T00:12:35.472Z,101370.53
2023-01-22T00:15:02.993Z,101370.16
2023-01-22T00:20:20.542Z,101368.22
2023-01-22T00:22:48.167Z,101368.13
2023-01-22T00:25:15.612Z,101368.19
2023-01-22T00:27:43.356Z,101367.88
2023-01-22T00:33:09.005Z,101369.00
2023-01-22T00:35:37.831Z,101361.84
2023-01-22T00:38:05.253Z,101354.41
2023-01-22T00:40:33.024Z,101355.56
2023-01-22T00:45:51.331Z,101358.72
2023-01-22T00:48:20.469Z,101356.00
2023-01-22T00:50:49.316Z,101358.31
2023-01-22T00:53:16.987Z,101351.09
2023-01-22T00:58:51.545Z,101341.97
2023-01-22T01:04:22.097Z,101352.28
2023-01-22T01:06:51.023Z,101351.25
2023-01-22T01:09:19.608Z,101353.34
2023-01-22T01:11:47.036Z,101357.19
2023-01-22T01:17:16.833Z,101357.66
2023-01-22T01:19:44.234Z,101364.03
2023-01-22T01:22:13.132Z,101357.66
2023-01-22T01:24:40.506Z,101351.50
2023-01-22T01:30:11.844Z,101350.78
2023-01-22T01:32:39.350Z,101352.97
2023-01-22T01:35:07.425Z,101352.31
2023-01-22T01:37:36.397Z,101345.00
2023-01-22T01:42:52.825Z,101349.78
2023-01-22T01:48:29.041Z,101348.34
2023-01-22T01:51:01.142Z,101350.34
2023-01-22T01:53:30.063Z,101345.69
2023-01-22T01:55:59.147Z,101342.53
2023-01-22T02:01:24.984Z,101336.72
2023-01-22T02:03:52.715Z,101348.03
2023-01-22T02:06:22.569Z,101339.59
2023-01-22T02:08:51.873Z,101329.69
2023-01-22T02:14:19.740Z,101338.09
2023-01-22T02:16:47.161Z,101343.59
2023-01-22T02:19:14.669Z,101335.03
2023-01-22T02:21:44.416Z,101336.88
2023-01-22T02:27:00.946Z,101335.50
2023-01-22T02:29:28.882Z,101334.94
2023-01-22T02:31:56.406Z,101328.16
2023-01-22T02:34:24.909Z,101327.13
2023-01-22T02:39:43.191Z,101332.25
2023-01-22T02:42:10.707Z,101328.22
2023-01-22T02:44:39.602Z,101326.81
2023-01-22T02:47:07.161Z,101328.59
2023-01-22T02:52:33.964Z,101317.25
2023-01-22T02:55:02.831Z,101330.56
2023-01-22T02:57:31.163Z,101324.00
2023-01-22T02:59:58.621Z,101326.06
2023-01-22T03:05:20.336Z,101320.72
2023-01-22T03:07:47.770Z,101327.84
2023-01-22T03:10:19.675Z,101317.16
2023-01-22T03:13:06.189Z,101319.91
2023-01-22T03:15:51.964Z,101308.75
2023-01-22T03:18:37.481Z,101309.53
2023-01-22T03:24:07.920Z,101316.09
2023-01-22T03:26:37.085Z,101303.41
2023-01-22T03:29:04.585Z,101309.75
2023-01-22T03:31:32.168Z,101310.34
2023-01-22T03:36:50.034Z,101322.69
2023-01-22T03:39:17.622Z,101309.41
2023-01-22T03:41:47.145Z,101317.00
2023-01-22T03:44:14.729Z,101307.53
2023-01-22T03:49:41.348Z,101312.34
2023-01-22T03:55:10.636Z,101314.47
2023-01-22T03:57:39.642Z,101311.25
2023-01-22T04:00:09.257Z,101302.97
2023-01-22T04:02:40.011Z,101310.03
2023-01-22T04:08:06.186Z,101311.59
2023-01-22T04:10:35.323Z,101312.22
2023-01-22T04:13:05.265Z,101315.50
2023-01-22T04:15:32.708Z,101312.72
2023-01-22T04:21:06.662Z,101314.88
2023-01-22T04:23:46.173Z,101323.09
2023-01-22T04:26:13.747Z,101314.94
2023-01-22T04:28:44.554Z,101322.16
2023-01-22T04:34:05.304Z,101319.88
2023-01-22T04:39:38.807Z,101312.97
2023-01-22T04:42:06.361Z,101315.00
2023-01-22T04:44:35.261Z,101315.25
2023-01-22T04:47:02.708Z,101317.69
2023-01-22T04:52:32.864Z,101317.03
2023-01-22T04:55:00.364Z,101317.78
2023-01-22T04:57:38.550Z,101320.41
2023-01-22T05:00:09.142Z,101323.88
2023-01-22T05:05:35.826Z,101319.63
2023-01-22T05:08:03.380Z,101326.63
2023-01-22T05:10:32.311Z,101328.34
2023-01-22T05:13:03.954Z,101327.66
2023-01-22T05:18:21.215Z,101329.19
2023-01-22T05:20:51.803Z,101319.91
2023-01-22T05:23:21.203Z,101327.94
2023-01-22T05:25:49.437Z,101324.91
2023-01-22T05:31:18.551Z,101319.22
2023-01-22T05:37:01.145Z,101310.53
2023-01-22T05:39:31.471Z,101323.63
2023-01-22T05:42:01.273Z,101317.53
2023-01-22T05:44:28.712Z,101315.34
2023-01-22T05:49:58.823Z,101317.53
2023-01-22T05:52:27.826Z,101322.03
2023-01-22T05:54:55.428Z,101316.72
2023-01-22T05:57:23.437Z,101322.28
2023-01-22T06:02:39.901Z,101327.25
2023-01-22T06:05:08.829Z,101313.72
2023-01-22T06:07:37.628Z,101312.97
2023-01-22T06:10:05.962Z,101309.03
2023-01-22T06:15:27.370Z,101312.63
2023-01-22T06:21:07.885Z,101325.91
2023-01-22T06:23:37.469Z,101321.28
2023-01-22T06:26:05.693Z,101317.19
2023-01-22T06:28:33.283Z,101310.59
2023-01-22T06:34:05.335Z,101319.81
2023-01-22T06:36:32.978Z,101311.69
2023-01-22T06:39:02.133Z,101311.72
2023-01-22T06:41:43.178Z,101323.78
2023-01-22T06:47:09.356Z,101334.88
2023-01-22T06:49:36.986Z,101341.13
2023-01-22T06:52:06.944Z,101338.69
2023-01-22T06:54:35.876Z,101344.72
2023-01-22T06:59:51.108Z,101338.41
2023-01-22T07:02:19.420Z,101345.44
2023-01-22T07:04:46.907Z,101349.00
2023-01-22T07:07:14.602Z,101345.09
2023-01-22T07:12:32.167Z,101358.81
2023-01-22T07:14:59.558Z,101358.47
2023-01-22T07:17:26.990Z,101358.22
2023-01-22T07:19:54.440Z,101371.59
2023-01-22T07:25:11.147Z,101370.63
2023-01-22T07:27:39.936Z,101370.66
2023-01-22T07:30:08.837Z,101372.94
2023-01-22T07:32:36.618Z,101382.34
2023-01-22T07:37:53.453Z,101380.97
2023-01-22T07:40:21.219Z,101389.34
2023-01-22T07:42:49.957Z,101382.16
2023-01-22T07:45:19.143Z,101387.00
2023-01-22T07:50:32.989Z,101392.38
2023-01-22T07:53:01.358Z,101387.75
2023-01-22T07:55:31.164Z,101398.66
2023-01-22T07:58:01.114Z,101401.72
2023-01-22T08:03:15.106Z,101402.63
2023-01-22T08:05:43.148Z,101412.63
2023-01-22T08:08:13.405Z,101406.09
2023-01-22T08:10:41.121Z,101400.69
2023-01-22T08:15:55.915Z,101405.75
2023-01-22T08:18:23.669Z,101404.00
2023-01-22T08:20:51.253Z,101404.00
2023-01-22T08:23:22.083Z,101411.44
2023-01-22T08:28:51.147Z,101419.81
2023-01-22T08:34:22.780Z,101416.19
2023-01-22T08:36:50.194Z,101427.41
2023-01-22T08:39:19.506Z,101427.56
2023-01-22T08:41:46.899Z,101418.03
2023-01-22T08:47:02.796Z,101426.25
2023-01-22T08:49:31.602Z,101417.78
2023-01-22T08:51:59.107Z,101420.13
2023-01-22T08:54:29.914Z,101418.19
2023-01-22T09:00:01.346Z,101427.34
2023-01-22T09:02:29.307Z,101430.22
2023-01-22T09:04:58.270Z,101429.28
2023-01-22T09:07:25.983Z,101425.84
2023-01-22T09:12:41.946Z,101430.91
2023-01-22T09:15:10.467Z,101435.53
2023-01-22T09:17:37.883Z,101435.31
2023-01-22T09:20:07.312Z,101429.97
2023-01-22T09:25:22.978Z,101425.28
2023-01-22T09:27:50.437Z,101424.84
2023-01-22T09:30:18.263Z,101424.53
2023-01-22T09:32:45.792Z,101441.22
2023-01-22T09:38:03.400Z,101440.34
2023-01-22T09:40:33.000Z,101440.97
2023-01-22T09:43:05.331Z,101447.72
2023-01-22T09:45:38.538Z,101443.66
2023-01-22T09:50:58.838Z,101439.16
2023-01-22T09:53:27.649Z,101449.81
2023-01-22T09:55:57.495Z,101449.59
2023-01-22T09:58:26.327Z,101446.16
2023-01-22T10:04:03.167Z,101451.28
2023-01-22T10:09:35.080Z,101450.44
2023-01-22T10:12:06.733Z,101444.66
2023-01-22T10:14:34.185Z,101439.84
2023-01-22T10:17:03.502Z,101449.06
2023-01-22T10:22:29.843Z,101439.56
2023-01-22T10:24:58.687Z,101439.78
2023-01-22T10:27:34.777Z,101445.50
2023-01-22T10:30:08.817Z,101435.13
2023-01-22T10:35:22.248Z,101428.00
2023-01-22T10:40:54.160Z,101436.69
2023-01-22T10:43:21.578Z,101442.63
2023-01-22T10:45:53.602Z,101439.25
2023-01-22T10:48:21.574Z,101443.31
2023-01-22T10:53:49.540Z,101432.78
2023-01-22T10:56:28.218Z,101435.22
2023-01-22T10:58:56.815Z,101434.50
2023-01-22T11:01:33.225Z,101435.41
2023-01-22T11:07:01.328Z,101441.25
2023-01-22T11:12:35.439Z,101439.41
2023-01-22T11:15:07.262Z,101447.41
2023-01-22T11:17:38.381Z,101428.50
2023-01-22T11:20:14.975Z,101429.59
2023-01-22T11:25:39.343Z,101434.88
2023-01-22T11:28:17.647Z,101430.38
2023-01-22T11:30:52.280Z,101431.59
2023-01-22T11:33:27.568Z,101437.59
2023-01-22T11:36:17.875Z,101443.22
2023-01-22T11:38:51.112Z,101435.25
2023-01-22T11:44:40.318Z,101433.78
2023-01-22T11:47:21.186Z,101438.56
2023-01-22T11:49:58.721Z,101434.97
2023-01-22T11:52:37.813Z,101426.84
2023-01-22T11:55:33.806Z,101436.38
2023-01-22T11:58:07.507Z,101430.63
2023-01-22T12:03:51.217Z,101440.66
2023-01-22T12:09:39.857Z,101436.22
2023-01-22T12:12:17.407Z,101429.53
2023-01-22T12:14:55.047Z,101434.19
2023-01-22T12:17:50.538Z,101426.78
2023-01-22T12:23:10.244Z,101422.00
2023-01-22T12:28:40.887Z,101420.41
2023-01-22T12:31:11.804Z,101422.19
2023-01-22T12:33:41.764Z,101426.72
2023-01-22T12:36:13.291Z,101426.97
2023-01-22T12:41:53.497Z,101426.78
2023-01-22T12:44:31.977Z,101423.94
2023-01-22T12:47:09.034Z,101434.34
2023-01-22T12:49:46.390Z,101431.91
2023-01-22T12:52:37.794Z,101437.63
2023-01-22T12:55:23.224Z,101433.78
2023-01-22T13:01:00.846Z,101437.75
2023-01-22T13:03:32.117Z,101443.31
2023-01-22T13:06:01.150Z,101436.09
2023-01-22T13:08:37.537Z,101438.22
2023-01-22T13:13:51.647Z,101441.81
2023-01-22T13:19:21.671Z,101442.16
2023-01-22T13:21:49.957Z,101442.16
2023-01-22T13:24:19.005Z,101436.06
2023-01-22T13:26:52.738Z,101445.09
2023-01-22T13:32:17.427Z,101451.78
2023-01-22T13:34:46.203Z,101446.25
2023-01-22T13:37:16.631Z,101451.84
2023-01-22T13:39:44.034Z,101452.75
2023-01-22T13:45:16.217Z,101458.84
2023-01-22T13:47:43.646Z,101458.78
2023-01-22T13:50:21.286Z,101457.03
2023-01-22T13:52:50.224Z,101450.75
2023-01-22T13:58:46.707Z,101465.97
2023-01-22T14:04:29.866Z,101471.53
2023-01-22T14:06:58.691Z,101472.56
2023-01-22T14:09:27.537Z,101476.13
2023-01-22T14:11:54.970Z,101477.19
2023-01-22T14:17:23.841Z,101476.31
2023-01-22T14:22:55.126Z,101482.00
2023-01-22T14:25:22.569Z,101480.00
2023-01-22T14:27:50.623Z,101489.81
2023-01-22T14:30:20.819Z,101478.59
2023-01-22T14:35:50.806Z,101486.94
2023-01-22T14:38:19.889Z,101491.38
2023-01-22T14:40:47.350Z,101502.53
2023-01-22T14:43:14.848Z,101497.00
2023-01-22T14:48:40.832Z,101501.22
2023-01-22T14:51:09.756Z,101509.13
2023-01-22T14:53:39.009Z,101515.91
2023-01-22T14:56:06.801Z,101516.81
2023-01-22T15:01:32.803Z,101517.00
2023-01-22T15:04:01.181Z,101517.69
2023-01-22T15:06:28.601Z,101510.91
2023-01-22T15:08:57.458Z,101519.06
2023-01-22T15:14:13.034Z,101523.09
2023-01-22T15:16:40.648Z,101531.75
2023-01-22T15:19:08.159Z,101536.28
2023-01-22T15:21:35.600Z,101532.63
2023-01-22T15:26:55.625Z,101533.94
2023-01-22T15:29:23.022Z,101537.69
2023-01-22T15:31:50.515Z,101539.66
2023-01-22T15:34:18.148Z,101546.47
2023-01-22T15:39:36.324Z,101551.25
2023-01-22T15:45:05.021Z,101560.84
2023-01-22T15:47:32.475Z,101556.75
2023-01-22T15:49:59.913Z,101561.53
2023-01-22T15:52:27.383Z,101561.03
2023-01-22T15:57:46.122Z,101558.66
2023-01-22T16:00:14.972Z,101563.44
2023-01-22T16:02:42.667Z,101558.91
2023-01-22T16:05:10.597Z,101553.78
2023-01-22T16:10:26.834Z,101548.22
2023-01-22T16:12:55.601Z,101554.09
2023-01-22T16:15:23.025Z,101558.72
2023-01-22T16:17:50.442Z,101562.19
2023-01-22T16:23:20.989Z,101554.50
2023-01-22T16:25:48.405Z,101553.53
2023-01-22T16:28:17.179Z,101554.69
2023-01-22T16:30:44.670Z,101555.63
2023-01-22T16:36:17.496Z,101562.56
2023-01-22T16:38:45.329Z,101558.91
2023-01-22T16:41:25.910Z,101557.47
2023-01-22T16:43:56.591Z,101563.03
2023-01-22T16:49:21.101Z,101562.91
2023-01-22T16:54:47.927Z,101566.63
2023-01-22T16:57:15.523Z,101566.44
2023-01-22T16:59:44.370Z,101568.66
2023-01-22T17:02:14.324Z,101571.81
2023-01-22T17:07:44.771Z,101572.06
2023-01-22T17:10:12.461Z,101576.78
2023-01-22T17:12:39.880Z,101582.91
2023-01-22T17:15:10.180Z,101575.28
2023-01-22T17:20:40.201Z,101574.91
2023-01-22T17:23:07.828Z,101567.19
2023-01-22T17:25:35.285Z,101571.88
2023-01-22T17:28:02.803Z,101574.84
2023-01-22T17:33:30.575Z,101573.75
2023-01-22T17:35:59.226Z,101571.03
2023-01-22T17:38:27.837Z,101573.59
2023-01-22T17:40:56.709Z,101576.84
2023-01-22T17:46:24.281Z,101587.19
2023-01-22T17:51:50.775Z,101591.44
2023-01-22T17:54:19.453Z,101593.38
2023-01-22T17:56:48.915Z,101593.28
2023-01-22T17:59:16.385Z,101603.44
2023-01-22T18:04:48.216Z,101600.28
2023-01-22T18:07:16.406Z,101601.84
2023-01-22T18:09:43.865Z,101598.94
2023-01-22T18:12:12.874Z,101606.31
2023-01-22T18:17:28.838Z,101614.84
2023-01-22T18:19:57.631Z,101623.03
2023-01-22T18:22:25.906Z,101619.31
2023-01-22T18:24:53.322Z,101621.09
2023-01-22T18:30:11.150Z,101619.41
2023-01-22T18:32:38.606Z,101623.13
2023-01-22T18:35:09.454Z,101622.78
2023-01-22T18:37:38.212Z,101626.66
2023-01-22T18:42:53.800Z,101635.81
2023-01-22T18:45:21.436Z,101630.84
2023-01-22T18:47:51.528Z,101648.81
2023-01-22T18:50:20.683Z,101642.44
2023-01-22T18:55:47.134Z,101649.22
2023-01-22T18:58:27.163Z,101647.44
2023-01-22T19:00:55.734Z,101644.53
2023-01-22T19:03:23.742Z,101640.81
2023-01-22T19:08:42.187Z,101652.19
2023-01-22T19:11:09.851Z,101648.03
2023-01-22T19:13:37.319Z,101659.22
2023-01-22T19:16:06.561Z,101655.56
2023-01-22T19:21:26.228Z,101647.78
2023-01-22T19:26:55.375Z,101660.50
2023-01-22T19:29:23.986Z,101667.09
2023-01-22T19:31:53.800Z,101660.13
2023-01-22T19:34:24.142Z,101671.13
2023-01-22T19:39:51.318Z,101667.84
2023-01-22T19:42:19.023Z,101678.88
2023-01-22T19:44:46.593Z,101678.69
2023-01-22T19:47:14.270Z,101680.47
2023-01-22T19:52:29.786Z,101678.44
2023-01-22T19:54:58.517Z,101686.72
2023-01-22T19:57:29.964Z,101693.75
2023-01-22T19:59:58.960Z,101687.75
2023-01-22T20:05:28.787Z,101691.41
2023-01-22T20:07:58.020Z,101692.16
2023-01-22T20:10:27.013Z,101693.19
2023-01-22T20:12:54.612Z,101685.41
2023-01-22T20:18:20.777Z,101690.84
2023-01-22T20:20:53.054Z,101699.13
2023-01-22T20:23:20.537Z,101703.19
2023-01-22T20:25:50.055Z,101697.19
2023-01-22T20:31:13.619Z,101704.63
2023-01-22T20:36:38.757Z,101711.09
2023-01-22T20:39:06.224Z,101706.28
2023-01-22T20:41:35.175Z,101711.09
2023-01-22T20:44:03.050Z,101703.66
2023-01-22T20:49:18.872Z,101711.94
2023-01-22T20:51:46.338Z,101718.06
2023-01-22T20:54:13.801Z,101718.16
2023-01-22T20:56:42.581Z,101716.34
2023-01-22T21:02:12.852Z,101721.13
2023-01-22T21:04:40.415Z,101714.59
2023-01-22T21:07:07.871Z,101723.56
2023-01-22T21:09:35.306Z,101730.44
2023-01-22T21:14:55.330Z,101727.38
2023-01-22T21:17:23.071Z,101726.28
2023-01-22T21:19:51.549Z,101726.28
2023-01-22T21:22:18.975Z,101727.31
2023-01-22T21:27:51.080Z,101731.28
2023-01-22T21:30:20.497Z,101729.00
2023-01-22T21:32:51.221Z,101731.72
2023-01-22T21:35:18.648Z,101731.97
2023-01-22T21:40:34.785Z,101725.25
2023-01-22T21:43:19.665Z,101729.72
2023-01-22T21:46:06.083Z,101729.16
2023-01-22T21:48:33.642Z,101733.22
2023-01-22T21:51:07.691Z,101730.88
2023-01-22T21:53:35.154Z,101729.31
2023-01-22T21:56:02.718Z,101728.47
2023-01-22T21:58:48.975Z,101729.72
2023-01-22T22:01:22.317Z,101726.75
2023-01-22T22:03:50.037Z,101707.59
2023-01-22T22:06:17.493Z,101721.44
2023-01-22T22:11:42.861Z,101720.75
2023-01-22T22:14:11.535Z,101717.84
2023-01-22T22:16:40.314Z,101718.69
2023-01-22T22:19:07.791Z,101714.63
2023-01-22T22:24:37.924Z,101716.91
2023-01-22T22:27:05.381Z,101718.53
2023-01-22T22:29:32.847Z,101716.56
2023-01-22T22:32:01.610Z,101719.38
2023-01-22T22:37:18.319Z,101724.28
2023-01-22T22:39:45.721Z,101729.44
2023-01-22T22:42:13.161Z,101724.09
2023-01-22T22:44:40.640Z,101723.50
2023-01-22T22:49:58.112Z,101739.97
2023-01-22T22:52:25.572Z,101739.72
2023-01-22T22:54:52.963Z,101746.94
2023-01-22T22:57:20.361Z,101742.28
2023-01-22T23:02:50.829Z,101746.03
2023-01-22T23:05:19.564Z,101740.44
2023-01-22T23:07:47.016Z,101750.44
2023-01-22T23:10:28.589Z,101752.47
2023-01-22T23:15:44.765Z,101754.00
2023-01-22T23:18:12.178Z,101751.00
2023-01-22T23:20:40.929Z,101750.19
2023-01-22T23:23:08.365Z,101747.38
2023-01-22T23:28:24.792Z,101758.00
2023-01-22T23:30:52.258Z,101764.34
2023-01-22T23:33:19.694Z,101770.28
2023-01-22T23:35:51.089Z,101769.00
2023-01-22T23:41:21.401Z,101776.94
2023-01-22T23:46:47.810Z,101779.19
2023-01-22T23:49:15.282Z,101785.00
2023-01-22T23:51:45.014Z,101781.75
2023-01-22T23:54:12.535Z,101786.84
2023-01-22T23:59:28.790Z,101772.78
